Time;durP1;ratioP1;P1;durP2;ratioP2;P2;SDS_P1;SDS_P2;PMS_P1;PMS_P2;Temp;Humidity;BMP_temperature;BMP_pressure;BME280_temperature;BME280_humidity;BME280_pressure;Samples;Min_cycle;Max_cycle;Signal;HPM_P1;HPM_P2
2022/08/04 00:00:08;;;;;;;3.35;2.30;;;;;;;;;;5039059;28;20785;-59
2022/08/04 00:02:49;;;;;;;5.70;2.42;;;;;;;;;;5051287;28;20017;-59
2022/08/04 00:05:24;;;;;;;3.10;2.25;;;;;;;;;;5050110;28;20104;-59
2022/08/04 00:07:53;;;;;;;9.20;2.40;;;;;;;;;;5051203;28;20104;-58
2022/08/04 00:10:21;;;;;;;3.53;2.50;;;;;;;;;;5042962;28;20061;-60
2022/08/04 00:12:49;;;;;;;3.05;2.53;;;;;;;;;;5047490;28;20536;-59
2022/08/04 00:15:16;;;;;;;3.08;2.15;;;;;;;;;;5051796;28;20025;-59
2022/08/04 00:17:48;;;;;;;2.63;2.10;;;;;;;;;;5051666;28;20025;-58
2022/08/04 00:20:17;;;;;;;2.13;1.77;;;;;;;;;;5053910;28;20481;-59
2022/08/04 00:22:44;;;;;;;5.30;2.58;;;;;;;;;;5049720;28;20561;-59
2022/08/04 00:25:10;;;;;;;1.95;1.77;;;;;;;;;;5048936;28;20037;-59
2022/08/04 00:27:37;;;;;;;3.30;2.40;;;;;;;;;;5054725;28;20758;-60
2022/08/04 00:30:03;;;;;;;5.75;2.17;;;;;;;;;;5053619;28;20425;-59
2022/08/04 00:32:29;;;;;;;4.30;2.85;;;;;;;;;;5044498;28;20391;-60
2022/08/04 00:34:57;;;;;;;2.67;2.08;;;;;;;;;;5052885;28;20052;-59
2022/08/04 00:37:23;;;;;;;3.47;2.53;;;;;;;;;;5061444;28;20056;-59
2022/08/04 00:39:50;;;;;;;3.33;2.30;;;;;;;;;;5052920;28;20024;-60
2022/08/04 00:42:35;;;;;;;3.08;2.30;;;;;;;;;;5053789;28;20029;-59
2022/08/04 00:45:15;;;;;;;3.42;2.58;;;;;;;;;;5050382;28;20049;-60
2022/08/04 00:47:55;;;;;;;3.72;2.47;;;;;;;;;;5051336;28;20460;-59
2022/08/04 00:50:29;;;;;;;2.63;2.40;;;;;;;;;;5038067;28;20540;-60
2022/08/04 00:53:18;;;;;;;2.70;2.33;;;;;;;;;;5053666;28;20036;-59
2022/08/04 00:56:04;;;;;;;4.85;2.55;;;;;;;;;;5046799;28;20481;-59
2022/08/04 00:58:42;;;;;;;2.67;2.20;;;;;;;;;;5050729;28;20052;-59
2022/08/04 01:01:16;;;;;;;3.28;2.35;;;;;;;;;;5053087;28;20019;-60
2022/08/04 01:03:42;;;;;;;;;;;;;;;;;;5053817;28;20107;-60
2022/08/04 01:06:26;;;;;;;3.47;2.28;;;;;;;;;;5043425;28;20009;-59
2022/08/04 01:09:07;;;;;;;2.97;2.47;;;;;;;;;;5048829;28;20537;-60
2022/08/04 01:11:36;;;;;;;3.35;2.47;;;;;;;;;;5054326;28;20037;-61
2022/08/04 01:14:17;;;;;;;3.28;2.47;;;;;;;;;;5053040;28;20480;-60
2022/08/04 01:16:51;;;;;;;2.85;2.42;;;;;;;;;;5053047;28;20021;-60
2022/08/04 01:19:36;;;;;;;2.85;2.55;;;;;;;;;;5044497;28;20059;-60
2022/08/04 01:22:15;;;;;;;3.53;3.00;;;;;;;;;;5039126;28;20021;-60
2022/08/04 01:24:51;;;;;;;3.33;2.47;;;;;;;;;;5052098;28;20124;-59
2022/08/04 01:27:26;;;;;;;4.55;2.83;;;;;;;;;;5052837;28;20052;-60
2022/08/04 01:29:56;;;;;;;3.67;2.65;;;;;;;;;;5033885;28;20167;-60
2022/08/04 01:32:34;;;;;;;4.10;2.88;;;;;;;;;;5045213;28;20606;-60
2022/08/04 01:35:09;;;;;;;5.35;2.80;;;;;;;;;;5053097;28;20452;-60
2022/08/04 01:37:35;;;;;;;4.38;2.80;;;;;;;;;;5053860;28;20029;-60
2022/08/04 01:40:05;;;;;;;3.50;2.80;;;;;;;;;;5049883;28;20066;-60
2022/08/04 01:42:33;;;;;;;3.10;2.55;;;;;;;;;;5052878;28;20498;-60
2022/08/04 01:45:06;;;;;;;3.40;2.50;;;;;;;;;;5048487;28;20036;-60
2022/08/04 01:47:32;;;;;;;;;;;;;;;;;;5048350;28;20473;-61
2022/08/04 01:50:18;;;;;;;3.13;2.60;;;;;;;;;;5052536;28;19939;-60
2022/08/04 01:52:44;;;;;;;4.22;2.97;;;;;;;;;;5046368;28;20041;-60
2022/08/04 01:55:12;;;;;;;3.72;2.58;;;;;;;;;;5049765;28;20032;-60
2022/08/04 01:57:41;;;;;;;4.22;2.55;;;;;;;;;;5047248;28;20073;-60
2022/08/04 02:00:08;;;;;;;5.13;2.78;;;;;;;;;;5052269;28;20096;-60
2022/08/04 02:02:34;;;;;;;3.47;2.45;;;;;;;;;;5052182;28;20086;-60
2022/08/04 02:05:00;;;;;;;3.47;2.60;;;;;;;;;;5032976;28;20484;-60
2022/08/04 02:07:59;;;;;;;5.35;3.00;;;;;;;;;;5052313;28;20025;-60
2022/08/04 02:10:28;;;;;;;3.88;2.70;;;;;;;;;;5010717;28;20081;-60
2022/08/04 02:13:15;;;;;;;4.03;3.08;;;;;;;;;;5045256;28;20032;-60
2022/08/04 02:15:59;;;;;;;3.20;2.90;;;;;;;;;;5048124;28;20036;-60
2022/08/04 02:18:36;;;;;;;5.85;2.95;;;;;;;;;;5049072;28;20103;-60
2022/08/04 02:21:03;;;;;;;4.65;2.95;;;;;;;;;;5051054;28;20113;-59
2022/08/04 02:23:36;;;;;;;3.05;2.70;;;;;;;;;;5052614;28;20036;-60
2022/08/04 02:26:04;;;;;;;3.35;2.80;;;;;;;;;;5052013;28;20515;-60
2022/08/04 02:28:39;;;;;;;3.55;2.90;;;;;;;;;;5050939;28;20021;-60
2022/08/04 02:31:10;;;;;;;2.97;2.63;;;;;;;;;;5046211;28;20037;-61
2022/08/04 02:33:38;;;;;;;3.10;2.33;;;;;;;;;;5052927;28;20024;-60
2022/08/04 02:36:05;;;;;;;4.78;3.38;;;;;;;;;;5047628;28;20025;-60
2022/08/04 02:38:47;;;;;;;3.50;3.08;;;;;;;;;;5054409;28;20052;-59
2022/08/04 02:41:15;;;;;;;3.67;2.75;;;;;;;;;;5043867;28;20040;-58
2022/08/04 02:43:41;;;;;;;3.65;3.17;;;;;;;;;;5038178;28;20025;-59
2022/08/04 02:46:08;;;;;;;3.15;2.63;;;;;;;;;;5039877;28;20025;-59
2022/08/04 02:48:34;;;;;;;4.93;2.70;;;;;;;;;;5051045;28;20032;-59
2022/08/04 02:51:02;;;;;;;3.17;2.60;;;;;;;;;;5051024;28;20104;-59
2022/08/04 02:53:28;;;;;;;4.55;3.40;;;;;;;;;;5045484;28;20100;-60
2022/08/04 02:55:54;;;;;;;3.55;3.20;;;;;;;;;;5049996;28;20112;-59
2022/08/04 02:58:20;;;;;;;3.63;3.10;;;;;;;;;;5050932;28;20126;-59
2022/08/04 03:00:47;;;;;;;4.20;2.80;;;;;;;;;;5047501;28;20021;-59
2022/08/04 03:03:32;;;;;;;3.17;2.88;;;;;;;;;;5050721;28;20039;-60
2022/08/04 03:06:13;;;;;;;3.65;3.28;;;;;;;;;;5042961;28;20493;-59
2022/08/04 03:09:00;;;;;;;4.22;3.10;;;;;;;;;;5050855;28;20115;-60
2022/08/04 03:11:38;;;;;;;3.78;3.38;;;;;;;;;;5045839;28;20076;-59
2022/08/04 03:14:08;;;;;;;7.20;3.90;;;;;;;;;;5051074;28;20517;-58
2022/08/04 03:16:39;;;;;;;15.52;3.58;;;;;;;;;;5050367;28;20032;-59
2022/08/04 03:19:08;;;;;;;4.63;2.75;;;;;;;;;;5046592;28;20025;-59
2022/08/04 03:21:53;;;;;;;5.15;3.28;;;;;;;;;;5050590;28;20032;-59
2022/08/04 03:24:38;;;;;;;5.65;3.35;;;;;;;;;;5050756;28;20107;-59
2022/08/04 03:27:32;;;;;;;5.22;3.05;;;;;;;;;;5050914;28;20033;-59
2022/08/04 03:29:57;;;;;;;;;;;;;;;;;;5049514;28;20033;-59
2022/08/04 03:32:54;;;;;;;3.90;3.40;;;;;;;;;;5050586;28;19905;-59
2022/08/04 03:35:39;;;;;;;7.35;3.58;;;;;;;;;;5036832;28;20033;-59
2022/08/04 03:38:23;;;;;;;4.65;2.92;;;;;;;;;;5050606;28;20067;-59
2022/08/04 03:41:07;;;;;;;4.38;3.45;;;;;;;;;;5032735;28;20018;-59
2022/08/04 03:43:47;;;;;;;4.53;3.70;;;;;;;;;;5038686;28;20025;-59
2022/08/04 03:46:30;;;;;;;3.75;3.10;;;;;;;;;;5043809;28;20025;-59
2022/08/04 03:49:14;;;;;;;5.20;3.10;;;;;;;;;;5052175;28;20025;-59
2022/08/04 03:55:03;;;;;;;6.00;3.20;;;;;;;;;;5049386;28;20052;-60
2022/08/04 03:57:48;;;;;;;6.63;3.42;;;;;;;;;;5051001;28;20041;-59
2022/08/04 04:00:16;;;;;;;5.88;3.28;;;;;;;;;;5054229;28;20029;-59
2022/08/04 04:03:01;;;;;;;4.72;3.30;;;;;;;;;;5051699;28;20036;-58
2022/08/04 04:05:40;;;;;;;5.72;4.00;;;;;;;;;;5053755;28;20434;-60
2022/08/04 04:08:22;;;;;;;5.15;3.35;;;;;;;;;;5053086;28;20038;-59
2022/08/04 04:10:59;;;;;;;8.05;3.72;;;;;;;;;;5060343;28;20028;-61
2022/08/04 04:13:28;;;;;;;6.32;4.00;;;;;;;;;;5048688;28;20068;-59
2022/08/04 04:16:13;;;;;;;5.15;4.25;;;;;;;;;;5049386;28;20043;-59
2022/08/04 04:18:55;;;;;;;5.10;4.00;;;;;;;;;;5054044;28;20032;-59
2022/08/04 04:21:36;;;;;;;4.68;4.00;;;;;;;;;;5053674;28;20036;-60
2022/08/04 04:24:08;;;;;;;6.63;4.35;;;;;;;;;;5045664;28;20017;-59
2022/08/04 04:26:46;;;;;;;6.47;4.07;;;;;;;;;;5053099;28;20469;-60
2022/08/04 04:29:29;;;;;;;9.07;5.57;;;;;;;;;;5053747;28;20025;-59
2022/08/04 04:32:19;;;;;;;11.63;7.07;;;;;;;;;;5051902;28;20435;-59
2022/08/04 04:35:03;;;;;;;10.55;6.68;;;;;;;;;;5043453;28;20108;-60
2022/08/04 04:37:48;;;;;;;9.80;6.38;;;;;;;;;;5061896;28;20029;-59
2022/08/04 04:40:20;;;;;;;10.48;6.90;;;;;;;;;;5053539;28;20021;-58
2022/08/04 04:43:00;;;;;;;8.18;5.63;;;;;;;;;;5053260;28;20052;-59
2022/08/04 04:45:31;;;;;;;7.10;5.25;;;;;;;;;;5051742;28;20032;-59
2022/08/04 04:48:06;;;;;;;10.48;6.05;;;;;;;;;;5053594;28;20086;-59
2022/08/04 04:50:38;;;;;;;7.95;5.47;;;;;;;;;;5053322;28;20455;-59
2022/08/04 04:53:20;;;;;;;8.30;5.70;;;;;;;;;;5053549;28;20476;-59
2022/08/04 04:55:50;;;;;;;9.63;5.80;;;;;;;;;;5052264;28;20054;-59
2022/08/04 04:58:18;;;;;;;10.90;6.65;;;;;;;;;;5048673;28;20049;-59
2022/08/04 05:00:49;;;;;;;9.55;6.70;;;;;;;;;;5049955;28;20475;-59
2022/08/04 05:03:33;;;;;;;9.55;5.63;;;;;;;;;;5053375;28;20103;-59
2022/08/04 05:06:18;;;;;;;9.48;6.70;;;;;;;;;;5052436;28;20035;-59
2022/08/04 05:08:56;;;;;;;15.20;6.65;;;;;;;;;;5047012;28;20104;-59
2022/08/04 05:11:22;;;;;;;9.48;6.53;;;;;;;;;;5066150;28;20032;-59
2022/08/04 05:13:50;;;;;;;10.90;6.38;;;;;;;;;;5050660;28;20032;-59
2022/08/04 05:16:32;;;;;;;8.00;5.70;;;;;;;;;;5053143;28;20016;-59
2022/08/04 05:19:09;;;;;;;10.18;6.10;;;;;;;;;;5053097;28;20028;-59
2022/08/04 05:21:38;;;;;;;8.15;6.32;;;;;;;;;;5051533;28;20029;-59
2022/08/04 05:24:06;;;;;;;7.75;5.28;;;;;;;;;;5052969;28;20025;-59
2022/08/04 05:26:35;;;;;;;7.97;5.55;;;;;;;;;;5053073;28;20538;-59
2022/08/04 05:29:06;;;;;;;7.55;5.15;;;;;;;;;;5051274;28;20051;-60
2022/08/04 05:31:40;;;;;;;6.35;5.03;;;;;;;;;;5051730;28;20048;-60
2022/08/04 05:34:12;;;;;;;8.65;5.75;;;;;;;;;;5052419;28;20033;-58
2022/08/04 05:36:47;;;;;;;7.65;5.13;;;;;;;;;;5045887;28;20020;-59
2022/08/04 05:39:21;;;;;;;8.70;5.25;;;;;;;;;;5057571;28;20024;-60
2022/08/04 05:41:48;;;;;;;7.15;5.28;;;;;;;;;;5052190;28;20033;-58
2022/08/04 05:44:18;;;;;;;6.85;4.80;;;;;;;;;;5050294;28;20041;-59
2022/08/04 05:46:46;;;;;;;4.88;4.38;;;;;;;;;;5052049;28;20108;-59
2022/08/04 05:49:13;;;;;;;7.55;5.40;;;;;;;;;;5052133;28;20062;-59
2022/08/04 05:51:39;;;;;;;5.20;4.32;;;;;;;;;;5051330;28;20082;-59
2022/08/04 05:54:06;;;;;;;9.35;5.80;;;;;;;;;;5052242;28;20484;-60
2022/08/04 05:56:33;;;;;;;8.57;5.30;;;;;;;;;;5052772;28;20047;-59
2022/08/04 05:58:59;;;;;;;7.57;4.93;;;;;;;;;;5042074;28;20531;-59
2022/08/04 06:01:26;;;;;;;8.48;5.68;;;;;;;;;;5050801;28;20477;-59
2022/08/04 06:03:54;;;;;;;9.93;6.55;;;;;;;;;;5051360;28;20503;-59
2022/08/04 06:06:21;;;;;;;11.85;8.52;;;;;;;;;;5052316;28;20028;-59
2022/08/04 06:08:47;;;;;;;11.02;8.93;;;;;;;;;;5051794;28;20029;-60
2022/08/04 06:11:13;;;;;;;11.88;7.95;;;;;;;;;;5052471;28;20035;-60
2022/08/04 06:13:42;;;;;;;9.88;6.68;;;;;;;;;;5042722;28;20054;-60
2022/08/04 06:16:09;;;;;;;11.23;6.65;;;;;;;;;;5050712;28;20071;-60
2022/08/04 06:18:36;;;;;;;7.28;5.75;;;;;;;;;;5051889;28;20480;-60
2022/08/04 06:21:04;;;;;;;10.93;6.28;;;;;;;;;;5047223;28;20535;-59
2022/08/04 06:23:30;;;;;;;7.90;5.47;;;;;;;;;;5050243;28;20035;-60
2022/08/04 06:25:57;;;;;;;7.93;5.60;;;;;;;;;;5051924;28;20036;-59
2022/08/04 06:28:24;;;;;;;5.28;4.75;;;;;;;;;;5051955;28;20447;-59
2022/08/04 06:30:50;;;;;;;6.40;4.88;;;;;;;;;;5045201;28;20421;-59
2022/08/04 06:33:26;;;;;;;8.65;5.43;;;;;;;;;;5049447;28;20477;-59
2022/08/04 06:35:54;;;;;;;6.97;5.50;;;;;;;;;;5050488;28;20048;-59
2022/08/04 06:38:23;;;;;;;5.25;4.75;;;;;;;;;;5035249;28;20036;-59
2022/08/04 06:40:49;;;;;;;8.32;4.45;;;;;;;;;;5044381;28;20100;-59
2022/08/04 06:43:16;;;;;;;9.02;5.25;;;;;;;;;;5051593;28;20553;-59
2022/08/04 06:45:42;;;;;;;6.97;4.88;;;;;;;;;;5040407;28;20033;-59
2022/08/04 06:48:11;;;;;;;7.63;4.90;;;;;;;;;;5035810;28;20033;-59
2022/08/04 06:50:37;;;;;;;6.82;4.30;;;;;;;;;;5042831;28;20039;-59
2022/08/04 06:53:03;;;;;;;7.88;4.68;;;;;;;;;;5050342;28;20033;-59
2022/08/04 06:55:30;;;;;;;7.65;4.55;;;;;;;;;;5051239;28;20065;-60
2022/08/04 06:57:56;;;;;;;4.68;3.75;;;;;;;;;;5047587;28;22148;-59
2022/08/04 07:00:23;;;;;;;5.13;3.92;;;;;;;;;;5046309;28;20575;-59
2022/08/04 07:02:51;;;;;;;5.50;3.15;;;;;;;;;;5044339;28;20421;-60
2022/08/04 07:05:18;;;;;;;4.82;3.40;;;;;;;;;;5051060;28;20464;-61
2022/08/04 07:07:44;;;;;;;9.38;3.08;;;;;;;;;;5049984;28;20041;-59
2022/08/04 07:10:10;;;;;;;4.88;3.00;;;;;;;;;;5053130;28;20488;-60
2022/08/04 07:12:39;;;;;;;8.68;2.97;;;;;;;;;;5056835;28;20531;-60
2022/08/04 07:15:06;;;;;;;5.35;2.35;;;;;;;;;;5054565;28;20399;-60
2022/08/04 07:17:33;;;;;;;3.25;2.42;;;;;;;;;;5043746;28;20064;-60
2022/08/04 07:19:59;;;;;;;6.60;2.97;;;;;;;;;;5050064;28;20128;-59
2022/08/04 07:22:26;;;;;;;4.63;2.42;;;;;;;;;;5032645;28;20635;-59
2022/08/04 07:24:56;;;;;;;6.97;2.85;;;;;;;;;;5049117;28;20071;-59
2022/08/04 07:27:22;;;;;;;3.40;2.30;;;;;;;;;;5037909;28;20503;-60
2022/08/04 07:29:48;;;;;;;4.43;2.25;;;;;;;;;;5030630;28;20037;-59
2022/08/04 07:32:15;;;;;;;5.88;2.58;;;;;;;;;;5050787;28;20041;-60
2022/08/04 07:34:42;;;;;;;4.50;2.60;;;;;;;;;;5049843;28;20033;-60
2022/08/04 07:37:08;;;;;;;4.20;2.30;;;;;;;;;;5052819;28;20070;-60
2022/08/04 07:39:35;;;;;;;3.65;2.15;;;;;;;;;;5048063;28;20025;-60
2022/08/04 07:42:02;;;;;;;4.70;2.97;;;;;;;;;;5033839;28;20064;-60
2022/08/04 07:44:28;;;;;;;4.65;2.22;;;;;;;;;;5042554;28;20037;-60
2022/08/04 07:46:54;;;;;;;4.13;2.40;;;;;;;;;;5050539;28;20064;-60
2022/08/04 07:49:20;;;;;;;6.43;2.30;;;;;;;;;;5049965;28;20032;-59
2022/08/04 07:51:47;;;;;;;5.57;2.25;;;;;;;;;;5048197;28;20443;-59
2022/08/04 07:54:13;;;;;;;3.85;2.20;;;;;;;;;;5049253;28;20028;-60
2022/08/04 07:56:40;;;;;;;3.38;2.47;;;;;;;;;;5050615;28;20057;-60
2022/08/04 07:59:07;;;;;;;3.47;2.40;;;;;;;;;;5048759;28;20073;-61
2022/08/04 08:01:36;;;;;;;3.42;2.40;;;;;;;;;;5041149;28;20116;-60
2022/08/04 08:04:04;;;;;;;6.20;2.42;;;;;;;;;;5048867;28;20108;-59
2022/08/04 08:06:30;;;;;;;4.93;2.22;;;;;;;;;;5050452;28;20568;-60
2022/08/04 08:08:59;;;;;;;6.82;2.40;;;;;;;;;;5050004;28;20025;-60
2022/08/04 08:11:25;;;;;;;5.75;2.28;;;;;;;;;;5047175;28;20048;-60
2022/08/04 08:13:51;;;;;;;3.83;2.35;;;;;;;;;;5045468;28;20042;-60
2022/08/04 08:16:19;;;;;;;3.47;1.95;;;;;;;;;;5043983;28;20021;-60
2022/08/04 08:18:45;;;;;;;8.98;2.08;;;;;;;;;;5050377;28;20068;-60
2022/08/04 08:21:11;;;;;;;4.70;2.20;;;;;;;;;;5047922;28;20041;-59
2022/08/04 08:23:38;;;;;;;2.65;1.90;;;;;;;;;;5049041;28;20080;-59
2022/08/04 08:26:05;;;;;;;4.47;2.03;;;;;;;;;;5049100;28;20047;-59
2022/08/04 08:28:31;;;;;;;6.88;2.10;;;;;;;;;;5046523;28;21461;-60
2022/08/04 08:30:57;;;;;;;5.38;2.55;;;;;;;;;;5034670;28;20578;-60
2022/08/04 08:33:25;;;;;;;4.45;2.33;;;;;;;;;;5046489;28;20037;-60
2022/08/04 08:35:52;;;;;;;4.95;2.10;;;;;;;;;;5050388;28;20031;-59
2022/08/04 08:38:21;;;;;;;5.28;2.28;;;;;;;;;;5052129;28;20036;-60
2022/08/04 08:40:56;;;;;;;2.50;1.52;;;;;;;;;;5051358;28;20040;-60
2022/08/04 08:43:33;;;;;;;4.57;2.10;;;;;;;;;;5053720;28;20560;-59
2022/08/04 08:46:14;;;;;;;2.75;1.60;;;;;;;;;;5051518;28;20063;-60
2022/08/04 08:48:49;;;;;;;3.83;1.52;;;;;;;;;;5043460;28;20033;-60
2022/08/04 08:51:34;;;;;;;3.35;1.60;;;;;;;;;;5047728;28;20105;-60
2022/08/04 08:54:21;;;;;;;2.75;1.63;;;;;;;;;;5034111;28;20037;-61
2022/08/04 08:56:46;;;;;;;16.83;1.80;;;;;;;;;;5041287;28;20025;-60
2022/08/04 08:59:31;;;;;;;3.25;1.50;;;;;;;;;;5050476;28;20608;-60
2022/08/04 09:02:16;;;;;;;3.17;1.50;;;;;;;;;;5050898;28;20025;-60
2022/08/04 09:04:42;;;;;;;3.47;1.35;;;;;;;;;;5043521;28;20025;-60
2022/08/04 09:07:26;;;;;;;3.92;1.27;;;;;;;;;;5039159;28;20027;-60
2022/08/04 09:10:11;;;;;;;3.60;1.83;;;;;;;;;;5038696;28;20160;-59
2022/08/04 09:12:40;;;;;;;4.70;1.95;;;;;;;;;;5053875;28;20107;-59
2022/08/04 09:15:14;;;;;;;2.90;1.80;;;;;;;;;;5053315;28;20040;-61
2022/08/04 09:18:02;;;;;;;5.32;1.67;;;;;;;;;;5045113;28;20492;-60
2022/08/04 09:20:30;;;;;;;6.15;1.60;;;;;;;;;;5048359;28;20127;-61
2022/08/04 09:23:06;;;;;;;3.75;1.83;;;;;;;;;;5042003;28;20010;-60
2022/08/04 09:25:39;;;;;;;4.43;1.33;;;;;;;;;;5040892;28;20037;-60
2022/08/04 09:28:05;;;;;;;;;;;;;;;;;;5045020;28;20028;-59
2022/08/04 09:30:36;;;;;;;7.82;1.75;;;;;;;;;;5051071;28;20353;-59
2022/08/04 09:33:05;;;;;;;3.70;1.77;;;;;;;;;;5049152;28;20112;-60
2022/08/04 09:35:35;;;;;;;2.45;1.20;;;;;;;;;;5052655;28;20029;-60
2022/08/04 09:38:15;;;;;;;3.67;1.30;;;;;;;;;;5045009;28;20057;-60
2022/08/04 09:41:02;;;;;;;4.32;1.20;;;;;;;;;;5040121;28;20389;-61
2022/08/04 09:43:28;;;;;;;1.88;1.30;;;;;;;;;;5052627;28;20496;-60
2022/08/04 09:46:05;;;;;;;2.70;1.20;;;;;;;;;;5049418;28;20036;-60
2022/08/04 09:48:35;;;;;;;2.10;1.33;;;;;;;;;;5048975;28;20033;-60
2022/08/04 09:51:01;;;;;;;4.13;1.17;;;;;;;;;;5048594;28;20528;-61
2022/08/04 09:53:37;;;;;;;3.10;1.00;;;;;;;;;;5052480;28;20111;-60
2022/08/04 09:56:08;;;;;;;3.67;1.10;;;;;;;;;;5043430;28;20491;-59
2022/08/04 09:58:44;;;;;;;1.52;1.20;;;;;;;;;;5050034;28;20068;-60
2022/08/04 10:01:12;;;;;;;2.22;1.33;;;;;;;;;;5040863;28;20496;-60
2022/08/04 10:03:40;;;;;;;1.38;0.90;;;;;;;;;;5046036;28;20020;-59
2022/08/04 10:06:21;;;;;;;2.40;1.15;;;;;;;;;;5036825;28;20794;-61
2022/08/04 10:09:08;;;;;;;1.65;1.42;;;;;;;;;;5051301;28;20036;-60
2022/08/04 10:11:57;;;;;;;3.53;1.30;;;;;;;;;;5048916;28;20041;-59
2022/08/04 10:14:40;;;;;;;3.78;1.23;;;;;;;;;;5002187;28;20518;-61
2022/08/04 10:17:25;;;;;;;2.25;1.00;;;;;;;;;;5042711;28;20026;-60
2022/08/04 10:19:56;;;;;;;2.65;1.20;;;;;;;;;;5065152;28;20500;-60
2022/08/04 10:22:37;;;;;;;2.08;1.42;;;;;;;;;;5061802;28;20028;-60
2022/08/04 10:25:22;;;;;;;1.60;1.42;;;;;;;;;;5070028;28;20034;-60
2022/08/04 10:27:58;;;;;;;1.80;1.20;;;;;;;;;;5066673;28;20028;-60
2022/08/04 10:30:24;;;;;;;2.15;1.30;;;;;;;;;;5071420;28;20064;-61
2022/08/04 10:33:08;;;;;;;2.22;1.30;;;;;;;;;;5052095;28;20119;-60
2022/08/04 10:35:45;;;;;;;2.88;1.60;;;;;;;;;;5063458;28;20975;-61
2022/08/04 10:38:15;;;;;;;5.25;1.50;;;;;;;;;;5063071;28;20507;-60
2022/08/04 10:40:50;;;;;;;4.50;1.65;;;;;;;;;;5042157;28;20025;-62
2022/08/04 10:43:16;;;;;;;4.97;1.38;;;;;;;;;;5066361;28;20029;-60
2022/08/04 10:45:44;;;;;;;5.50;1.50;;;;;;;;;;5054276;28;20094;-60
2022/08/04 10:48:28;;;;;;;2.47;1.27;;;;;;;;;;5052510;28;20025;-60
2022/08/04 10:51:02;;;;;;;3.55;1.52;;;;;;;;;;5070422;28;20036;-60
2022/08/04 10:53:29;;;;;;;1.92;1.27;;;;;;;;;;5054001;28;20028;-61
2022/08/04 10:56:08;;;;;;;1.85;1.30;;;;;;;;;;5068619;28;20044;-61
2022/08/04 10:58:46;;;;;;;3.13;1.15;;;;;;;;;;5065634;28;20139;-58
2022/08/04 11:01:17;;;;;;;1.40;1.10;;;;;;;;;;5067002;28;20029;-61
2022/08/04 11:03:55;;;;;;;1.80;1.02;;;;;;;;;;5071345;28;20025;-61
2022/08/04 11:06:23;;;;;;;8.07;1.33;;;;;;;;;;5070101;28;20046;-61
2022/08/04 11:08:54;;;;;;;6.40;1.42;;;;;;;;;;5062213;28;20024;-58
2022/08/04 11:11:30;;;;;;;2.42;1.10;;;;;;;;;;5070403;28;20051;-58
2022/08/04 11:14:01;;;;;;;1.80;1.30;;;;;;;;;;5071271;28;20035;-60
2022/08/04 11:16:31;;;;;;;3.97;1.67;;;;;;;;;;5075820;28;20095;-59
2022/08/04 11:19:15;;;;;;;2.72;1.80;;;;;;;;;;5070013;28;20025;-58
2022/08/04 11:21:49;;;;;;;7.22;1.73;;;;;;;;;;5059533;28;20104;-57
2022/08/04 11:24:22;;;;;;;2.47;1.52;;;;;;;;;;5066134;28;20109;-60
2022/08/04 11:26:50;;;;;;;1.88;1.52;;;;;;;;;;5052481;28;20032;-60
2022/08/04 11:29:41;;;;;;;5.78;1.80;;;;;;;;;;5058660;28;20032;-60
2022/08/04 11:32:10;;;;;;;1.77;1.48;;;;;;;;;;5052763;28;20035;-60
2022/08/04 11:34:38;;;;;;;2.30;1.33;;;;;;;;;;5062147;28;20040;-61
2022/08/04 11:37:17;;;;;;;6.03;1.60;;;;;;;;;;5070372;28;20361;-60
2022/08/04 11:39:57;;;;;;;6.90;1.45;;;;;;;;;;5066610;28;20521;-60
2022/08/04 11:42:26;;;;;;;1.88;1.67;;;;;;;;;;5058312;28;20021;-60
2022/08/04 11:44:56;;;;;;;2.75;1.67;;;;;;;;;;5060983;28;20028;-60
2022/08/04 11:47:29;;;;;;;2.58;1.73;;;;;;;;;;5064308;28;20111;-61
2022/08/04 11:50:02;;;;;;;3.78;1.50;;;;;;;;;;5067736;28;20025;-61
2022/08/04 11:52:29;;;;;;;3.13;1.35;;;;;;;;;;5070479;28;20027;-61
2022/08/04 11:54:55;;;;;;;3.60;1.50;;;;;;;;;;5049940;28;20488;-61
2022/08/04 11:57:22;;;;;;;3.15;1.50;;;;;;;;;;5070634;28;20193;-60
2022/08/04 11:59:49;;;;;;;1.67;1.13;;;;;;;;;;5069443;28;20055;-61
2022/08/04 12:02:21;;;;;;;2.67;1.45;;;;;;;;;;5062144;28;20066;-61
2022/08/04 12:04:55;;;;;;;1.23;0.88;;;;;;;;;;5063054;28;20041;-61
2022/08/04 12:07:23;;;;;;;1.58;1.00;;;;;;;;;;5070424;28;20042;-61
2022/08/04 12:10:02;;;;;;;1.67;1.23;;;;;;;;;;5063757;28;20028;-60
2022/08/04 12:12:28;;;;;;;2.35;1.20;;;;;;;;;;5070568;28;20675;-60
2022/08/04 12:14:59;;;;;;;2.70;1.10;;;;;;;;;;5048431;28;20017;-61
2022/08/04 12:17:29;;;;;;;1.80;1.00;;;;;;;;;;5072434;28;20467;-58
2022/08/04 12:19:57;;;;;;;1.23;0.80;;;;;;;;;;5073946;28;20016;-60
2022/08/04 12:22:24;;;;;;;1.65;1.15;;;;;;;;;;5061508;28;20107;-60
2022/08/04 12:24:53;;;;;;;2.10;1.00;;;;;;;;;;5074077;28;20036;-61
2022/08/04 12:27:21;;;;;;;2.50;1.35;;;;;;;;;;5074417;28;20499;-60
2022/08/04 12:29:47;;;;;;;4.30;1.02;;;;;;;;;;5072358;28;20043;-60
2022/08/04 12:32:32;;;;;;;4.45;1.02;;;;;;;;;;5073973;28;20028;-60
2022/08/04 12:35:03;;;;;;;3.35;0.68;;;;;;;;;;5073829;28;20029;-61
2022/08/04 12:37:43;;;;;;;2.67;1.15;;;;;;;;;;5077146;28;20016;-60
2022/08/04 12:40:13;;;;;;;4.05;1.17;;;;;;;;;;5073403;28;20032;-60
2022/08/04 12:42:52;;;;;;;3.90;1.10;;;;;;;;;;5073938;28;20484;-61
2022/08/04 12:45:18;;;;;;;3.03;1.00;;;;;;;;;;5072218;28;20055;-60
2022/08/04 12:47:46;;;;;;;4.25;1.30;;;;;;;;;;5073613;28;20515;-60
2022/08/04 12:50:14;;;;;;;4.05;1.10;;;;;;;;;;5055619;28;20021;-60
2022/08/04 12:52:44;;;;;;;1.42;1.00;;;;;;;;;;5069884;28;20050;-60
2022/08/04 12:55:10;;;;;;;1.38;0.98;;;;;;;;;;5073663;28;20034;-60
2022/08/04 12:57:36;;;;;;;1.52;0.82;;;;;;;;;;5073357;28;20053;-61
2022/08/04 13:00:03;;;;;;;1.38;0.70;;;;;;;;;;5073253;28;20056;-60
2022/08/04 13:02:33;;;;;;;2.88;0.90;;;;;;;;;;5073318;28;20028;-61
2022/08/04 13:05:02;;;;;;;1.45;1.23;;;;;;;;;;5073462;28;20029;-60
2022/08/04 13:07:35;;;;;;;4.60;0.80;;;;;;;;;;5071934;28;20036;-60
2022/08/04 13:10:05;;;;;;;4.93;1.60;;;;;;;;;;5073099;28;20028;-60
2022/08/04 13:12:32;;;;;;;3.13;1.42;;;;;;;;;;5079362;28;20699;-60
2022/08/04 13:14:59;;;;;;;1.45;0.98;;;;;;;;;;5078978;28;20372;-60
2022/08/04 13:17:25;;;;;;;5.93;1.27;;;;;;;;;;5072003;28;20103;-60
2022/08/04 13:19:53;;;;;;;1.65;1.10;;;;;;;;;;5072692;28;20528;-61
2022/08/04 13:22:27;;;;;;;3.08;0.85;;;;;;;;;;5053987;28;20021;-60
2022/08/04 13:24:54;;;;;;;4.32;1.20;;;;;;;;;;5070555;28;20039;-60
2022/08/04 13:27:21;;;;;;;1.85;0.90;;;;;;;;;;5058306;28;20029;-60
2022/08/04 13:29:48;;;;;;;2.25;0.90;;;;;;;;;;5073504;28;20032;-60
2022/08/04 13:32:16;;;;;;;3.45;0.80;;;;;;;;;;5073170;28;20121;-60
2022/08/04 13:34:42;;;;;;;2.97;0.68;;;;;;;;;;5073033;28;20032;-60
2022/08/04 13:37:09;;;;;;;1.73;0.90;;;;;;;;;;5076670;28;20108;-60
2022/08/04 13:39:38;;;;;;;1.35;0.90;;;;;;;;;;5072795;28;20028;-58
2022/08/04 13:42:08;;;;;;;1.85;0.70;;;;;;;;;;5072318;28;20024;-61
2022/08/04 13:44:35;;;;;;;0.90;0.80;;;;;;;;;;5071259;28;20472;-61
2022/08/04 13:47:04;;;;;;;5.32;0.98;;;;;;;;;;5072662;28;20108;-62
2022/08/04 13:49:30;;;;;;;2.30;1.00;;;;;;;;;;5072571;28;20468;-60
2022/08/04 13:51:58;;;;;;;2.60;0.80;;;;;;;;;;5072234;28;20031;-60
2022/08/04 13:54:25;;;;;;;1.10;0.75;;;;;;;;;;5072281;28;20025;-61
2022/08/04 13:56:54;;;;;;;2.42;0.68;;;;;;;;;;5072544;28;20036;-61
2022/08/04 13:59:22;;;;;;;4.60;0.82;;;;;;;;;;5070958;28;20044;-60
2022/08/04 14:01:57;;;;;;;1.85;0.63;;;;;;;;;;5072724;28;20029;-60
2022/08/04 14:04:25;;;;;;;1.60;0.60;;;;;;;;;;5068322;28;20082;-61
2022/08/04 14:06:51;;;;;;;2.88;0.90;;;;;;;;;;5063933;28;20016;-61
2022/08/04 14:09:19;;;;;;;1.20;0.55;;;;;;;;;;5071957;28;20020;-61
2022/08/04 14:11:46;;;;;;;2.72;0.60;;;;;;;;;;5053944;28;20025;-60
2022/08/04 14:14:33;;;;;;;2.22;0.47;;;;;;;;;;5085097;28;20677;-61
2022/08/04 14:16:59;;;;;;;1.30;0.60;;;;;;;;;;5061216;28;20100;-61
2022/08/04 14:19:25;;;;;;;1.77;0.70;;;;;;;;;;5079720;28;20491;-58
2022/08/04 14:21:51;;;;;;;2.17;0.80;;;;;;;;;;5055367;28;20185;-59
2022/08/04 14:24:25;;;;;;;1.17;0.65;;;;;;;;;;5072719;28;20131;-58
2022/08/04 14:26:51;;;;;;;1.00;0.63;;;;;;;;;;5071852;28;20032;-58
2022/08/04 14:29:17;;;;;;;2.50;0.50;;;;;;;;;;5054018;28;20024;-58
2022/08/04 14:31:46;;;;;;;0.70;0.43;;;;;;;;;;5071415;28;20017;-59
2022/08/04 14:34:24;;;;;;;1.20;0.70;;;;;;;;;;5069883;28;20623;-59
2022/08/04 14:36:50;;;;;;;1.05;0.80;;;;;;;;;;5059690;28;20035;-59
2022/08/04 14:39:16;;;;;;;1.75;0.82;;;;;;;;;;5072420;28;20095;-58
2022/08/04 14:41:50;;;;;;;6.07;0.80;;;;;;;;;;5072171;28;20048;-58
2022/08/04 14:44:17;;;;;;;1.10;0.70;;;;;;;;;;5053637;28;20020;-58
2022/08/04 14:46:53;;;;;;;1.77;0.68;;;;;;;;;;5071219;28;20027;-58
2022/08/04 14:49:19;;;;;;;1.00;0.45;;;;;;;;;;5070134;28;20468;-58
2022/08/04 14:51:53;;;;;;;1.48;0.70;;;;;;;;;;5071675;28;20484;-58
2022/08/04 14:54:25;;;;;;;1.23;0.45;;;;;;;;;;5071218;28;20028;-58
2022/08/04 14:56:53;;;;;;;1.48;0.73;;;;;;;;;;5053351;28;20437;-58
2022/08/04 14:59:19;;;;;;;1.50;0.60;;;;;;;;;;5072072;28;20053;-58
2022/08/04 15:01:46;;;;;;;2.67;0.80;;;;;;;;;;5057445;28;20020;-58
2022/08/04 15:04:12;;;;;;;3.15;0.60;;;;;;;;;;5069906;28;20041;-59
2022/08/04 15:06:39;;;;;;;8.57;1.00;;;;;;;;;;5071122;28;20115;-58
2022/08/04 15:09:06;;;;;;;3.30;0.70;;;;;;;;;;5071280;28;20021;-60
2022/08/04 15:11:33;;;;;;;0.63;0.52;;;;;;;;;;5064736;28;20016;-62
2022/08/04 15:13:59;;;;;;;0.80;0.50;;;;;;;;;;5068511;28;20024;-61